Current Weather Conditions: station 66022

sailwx.info

Wind from 230 at 15 knots

Air temperature 7.2° C
Water temperature 8.5° C

Last reported at 2014-Nov-24 23:00 UTC.
Time now 2014-Nov-25 00:48 UTC

Location: N 54°06' E 014°12'.
View on Google Maps.

See reports from other nearby stations

  
Tides and Currents Weather Stations Pressure Air Temp Water Temp Dewpoint Dewpoint Depression Visibility Wind Speed Wind Dir Waves Ship Positions
date/time (UTC)wind fromknots sea level pressurealtimeterstation pressurevisibilityair tempwater tempwave heightnotes
2014-Nov-24 23:00 230 15 7.2 8.5
2014-Nov-24 22:00 220 15 7.2 8.5
2014-Nov-24 21:00 220 13 7.3 8.5
2014-Nov-24 20:00 220 13 7.4 8.5
2014-Nov-24 19:00 220 13 7.5 8.6
2014-Nov-24 18:00 220 13 7.9 8.6
2014-Nov-24 17:00 230 11 8.4 8.6
2014-Nov-24 16:00 250 11 8.8 8.6
2014-Nov-24 15:00 260 13 9.2 8.6
2014-Nov-24 13:00 210 13 7.6 8.6
2014-Nov-24 12:00 200 15 6.9 8.6
2014-Nov-24 11:00 190 15 7.1 8.6
2014-Nov-24 10:00 190 19 7.0 8.6
2014-Nov-24 09:00 170 19 6.5 8.6
2014-Nov-24 06:00 160 27 6.9 8.7
2014-Nov-24 04:00 150 27 6.4 8.6
2014-Nov-24 03:00 140 29 6.4 8.6
2014-Nov-24 02:00 140 31 6.4 8.6
2014-Nov-24 00:00 140 25 6.7 8.6
2014-Nov-23 23:00 140 23 6.8 8.5
2014-Nov-23 22:00 140 25 6.8 8.5
2014-Nov-23 21:00 140 25 6.8 8.5
2014-Nov-23 20:00 140 23 6.7 8.5
2014-Nov-23 18:00 140 23 7.0 8.7
2014-Nov-23 17:00 130 21 7.1 8.8
2014-Nov-23 16:00 140 21 7.1 8.8
2014-Nov-23 15:00 140 19 7.0 8.7
2014-Nov-23 13:00 140 21 6.7 8.7
2014-Nov-23 12:00 140 21 6.3 8.7
2014-Nov-23 11:00 140 19 6.0 8.7
2014-Nov-23 10:00 140 21 5.8 8.8
2014-Nov-23 09:00 140 23 5.6 8.9
2014-Nov-23 08:00 130 23 5.6
2014-Nov-23 07:00 130 19 5.8 9.0
2014-Nov-23 06:00 130 19 5.9 9.0
2014-Nov-23 05:00 130 19 5.8 9.0
2014-Nov-23 04:00 130 19 5.9 9.0
2014-Nov-23 03:00 130 19 5.9 9.0
2014-Nov-23 02:00 130 19 6.0 9.0
2014-Nov-23 01:00 130 21 6.1 9.0
2014-Nov-23 00:00 140 17 6.2 9.0